This is the latest recevied weather packets stored in our database for station/object EB1BWO-10. If no packets are shown the sender has not sent any weather packets the latest 10 day(s).
| Time | Temp. | Humidity | Pressure | Rain* | Wind** | Luminosity | Snow |
|---|---|---|---|---|---|---|---|
| 1778003879 | 11.11° C | 81% | 949.1 hPa | - | - | - | - |
| 1778002979 | 10.56° C | 83% | 949.2 hPa | - | - | - | - |
| 1778002079 | 10.56° C | 86% | 949.2 hPa | - | - | - | - |
| 1778001179 | 10° C | 86% | 949.4 hPa | - | - | - | - |
| 1778000279 | 10.56° C | 86% | 949.2 hPa | - | - | - | - |
| 1777999378 | 11.67° C | 80% | 949.2 hPa | - | - | - | - |
| 1777998478 | 11.11° C | 85% | 949.1 hPa | - | - | - | - |
| 1777997578 | 11.11° C | 86% | 949.1 hPa | - | - | - | - |
| 1777996679 | 10.56° C | 86% | 949.1 hPa | - | - | - | - |
| 1777995778 | 10° C | 89% | 949.1 hPa | - | - | - | - |
| 1777994878 | 10° C | 83% | 949.1 hPa | - | - | - | - |
| 1777993978 | 9.44° C | 87% | 949 hPa | - | - | - | - |
| 1777993078 | 9.44° C | 83% | 949.1 hPa | - | - | - | - |
| 1777992178 | 10.56° C | 83% | 948.9 hPa | - | - | - | - |
| 1777991278 | 10.56° C | 82% | 949.1 hPa | - | - | - | - |
| 1777990378 | 10.56° C | 78% | 949 hPa | - | - | - | - |
| 1777989478 | 11.67° C | 76% | 948.8 hPa | - | - | - | - |
| 1777988578 | 12.22° C | 79% | 948.9 hPa | - | - | - | - |
| 1777987677 | 12.78° C | 67% | 948.9 hPa | - | - | - | - |
| 1777986818 | 11.67° C | 75% | 949 hPa | - | - | - | - |
| 1777984978 | 11.67° C | 81% | 948.8 hPa | - | - | - | - |
| 1777984078 | 11.67° C | 81% | 948.7 hPa | - | - | - | - |
| 1777983178 | 11.11° C | 81% | 948.9 hPa | - | - | - | - |
| 1777982278 | 11.11° C | 83% | 948.9 hPa | - | - | - | - |
| 1777981378 | 11.11° C | 81% | 948.9 hPa | - | - | - | - |
* Rain since midnight (hover to see other rain measurements)
** Current wind speed in m/s (hover to see current wind gust speed)